createdAt,value
2023-04-25T00:01:00.788Z,100121.41
2023-04-25T00:03:28.377Z,100120.34
2023-04-25T00:05:57.768Z,100124.81
2023-04-25T00:08:25.994Z,100116.06
2023-04-25T00:10:53.431Z,100123.16
2023-04-25T00:13:21.228Z,100127.44
2023-04-25T00:15:49.184Z,100122.34
2023-04-25T00:18:18.784Z,100130.97
2023-04-25T00:20:46.606Z,100129.31
2023-04-25T00:23:18.343Z,100131.06
2023-04-25T00:25:46.209Z,100120.16
2023-04-25T00:28:13.920Z,100117.94
2023-04-25T00:30:42.144Z,100118.66
2023-04-25T00:33:10.490Z,100125.91
2023-04-25T00:35:40.234Z,100116.22
2023-04-25T00:38:07.606Z,100121.94
2023-04-25T00:40:35.233Z,100109.09
2023-04-25T00:43:02.684Z,100112.56
2023-04-25T00:45:31.382Z,100111.94
2023-04-25T00:47:59.044Z,100111.66
2023-04-25T00:50:26.624Z,100104.84
2023-04-25T00:52:56.042Z,100114.50
2023-04-25T00:55:23.530Z,100115.72
2023-04-25T00:57:51.153Z,100118.31
2023-04-25T01:00:20.047Z,100112.38
2023-04-25T01:02:48.452Z,100118.41
2023-04-25T01:05:16.066Z,100120.09
2023-04-25T01:07:43.514Z,100119.00
2023-04-25T01:10:12.704Z,100110.44
2023-04-25T01:12:40.200Z,100110.69
2023-04-25T01:15:08.553Z,100107.22
2023-04-25T01:17:36.530Z,100103.53
2023-04-25T01:20:06.373Z,100103.59
2023-04-25T01:22:36.051Z,100095.72
2023-04-25T01:25:04.180Z,100089.59
2023-04-25T01:27:32.269Z,100087.97
2023-04-25T01:29:59.817Z,100095.94
2023-04-25T01:32:27.918Z,100101.91
2023-04-25T01:34:55.377Z,100103.81
2023-04-25T01:37:22.822Z,100092.41
2023-04-25T01:39:51.904Z,100087.84
2023-04-25T01:42:20.581Z,100093.72
2023-04-25T01:44:48.045Z,100094.81
2023-04-25T01:47:15.443Z,100095.56
2023-04-25T01:49:42.847Z,100097.56
2023-04-25T01:52:18.147Z,100098.34
2023-04-25T01:54:45.788Z,100089.72
2023-04-25T01:57:13.463Z,100102.94
2023-04-25T01:59:41.638Z,100093.19
2023-04-25T02:02:09.142Z,100106.22
2023-04-25T02:04:37.090Z,100102.78
2023-04-25T02:07:05.709Z,100097.78
2023-04-25T02:09:34.470Z,100095.22
2023-04-25T02:12:02.883Z,100098.53
2023-04-25T02:14:30.305Z,100102.09
2023-04-25T02:16:58.278Z,100101.25
2023-04-25T02:19:25.861Z,100091.50
2023-04-25T02:21:53.267Z,100102.06
2023-04-25T02:24:20.682Z,100103.81
2023-04-25T02:26:50.508Z,100093.53
2023-04-25T02:29:18.075Z,100105.53
2023-04-25T02:31:45.506Z,100093.28
2023-04-25T02:34:12.945Z,100096.91
2023-04-25T02:36:40.652Z,100096.16
2023-04-25T02:39:08.150Z,100091.78
2023-04-25T02:41:35.529Z,100095.69
2023-04-25T02:44:04.311Z,100092.94
2023-04-25T02:46:38.954Z,100099.41
2023-04-25T02:49:07.358Z,100095.16
2023-04-25T02:51:34.852Z,100094.94
2023-04-25T02:54:02.251Z,100096.03
2023-04-25T02:56:29.636Z,100095.13
2023-04-25T02:58:57.095Z,100088.78
2023-04-25T03:01:25.927Z,100087.34
2023-04-25T03:03:53.644Z,100094.31
2023-04-25T03:06:21.428Z,100086.44
2023-04-25T03:08:48.846Z,100096.63
2023-04-25T03:11:16.212Z,100094.91
2023-04-25T03:13:43.702Z,100092.03
2023-04-25T03:16:11.135Z,100088.88
2023-04-25T03:18:39.996Z,100084.47
2023-04-25T03:21:07.422Z,100094.22
2023-04-25T03:23:34.830Z,100103.81
2023-04-25T03:26:02.219Z,100094.09
2023-04-25T03:28:29.849Z,100104.63
2023-04-25T03:30:57.285Z,100107.19
2023-04-25T03:33:24.820Z,100105.50
2023-04-25T03:35:53.975Z,100101.22
2023-04-25T03:38:21.379Z,100096.59
2023-04-25T03:40:48.812Z,100103.66
2023-04-25T03:43:16.233Z,100099.31
2023-04-25T03:45:44.485Z,100112.44
2023-04-25T03:48:11.931Z,100117.53
2023-04-25T03:50:39.378Z,100107.19
2023-04-25T03:53:08.089Z,100112.28
2023-04-25T03:55:35.696Z,100108.13
2023-04-25T03:58:03.099Z,100108.06
2023-04-25T04:00:30.637Z,100111.50
2023-04-25T04:02:59.104Z,100111.47
2023-04-25T04:05:26.880Z,100110.59
2023-04-25T04:07:54.431Z,100110.47
2023-04-25T04:10:23.302Z,100124.47
2023-04-25T04:12:50.702Z,100113.09
2023-04-25T04:15:18.239Z,100125.25
2023-04-25T04:17:45.700Z,100123.56
2023-04-25T04:20:13.132Z,100134.66
2023-04-25T04:22:40.559Z,100129.31
2023-04-25T04:25:08.754Z,100127.56
2023-04-25T04:27:37.535Z,100127.50
2023-04-25T04:30:05.913Z,100126.03
2023-04-25T04:32:35.526Z,100128.44
2023-04-25T04:35:04.562Z,100132.72
2023-04-25T04:37:32.168Z,100126.72
2023-04-25T04:39:59.545Z,100131.84
2023-04-25T04:42:27.210Z,100144.91
2023-04-25T04:44:56.322Z,100145.91
2023-04-25T04:47:24.728Z,100146.72
2023-04-25T04:49:52.170Z,100139.56
2023-04-25T04:52:19.612Z,100149.25
2023-04-25T04:54:47.001Z,100149.94
2023-04-25T04:57:14.542Z,100146.78
2023-04-25T04:59:41.955Z,100149.88
2023-04-25T05:02:11.093Z,100148.38
2023-04-25T05:04:38.641Z,100143.94
2023-04-25T05:07:06.197Z,100157.75
2023-04-25T05:09:33.615Z,100146.47
2023-04-25T05:12:01.940Z,100158.56
2023-04-25T05:14:29.572Z,100160.31
2023-04-25T05:16:57.255Z,100157.59
2023-04-25T05:19:26.356Z,100154.94
2023-04-25T05:21:54.067Z,100153.53
2023-04-25T05:24:21.469Z,100153.44
2023-04-25T05:26:48.909Z,100153.41
2023-04-25T05:29:16.279Z,100162.22
2023-04-25T05:31:43.691Z,100160.47
2023-04-25T05:34:11.110Z,100165.66
2023-04-25T05:36:39.807Z,100162.94
2023-04-25T05:39:07.398Z,100169.09
2023-04-25T05:41:34.794Z,100162.13
2023-04-25T05:44:02.216Z,100160.47
2023-04-25T05:46:29.725Z,100160.28
2023-04-25T05:48:57.158Z,100176.81
2023-04-25T05:51:24.658Z,100175.09
2023-04-25T05:53:53.690Z,100169.44
2023-04-25T05:56:21.212Z,100168.75
2023-04-25T05:58:48.909Z,100178.97
2023-04-25T06:01:16.870Z,100173.66
2023-04-25T06:03:44.887Z,100189.28
2023-04-25T06:06:13.309Z,100183.41
2023-04-25T06:08:40.765Z,100184.19
2023-04-25T06:11:09.541Z,100168.53
2023-04-25T06:13:36.991Z,100175.09
2023-04-25T06:16:05.053Z,100186.19
2023-04-25T06:18:32.653Z,100187.25
2023-04-25T06:21:00.118Z,100189.22
2023-04-25T06:23:27.641Z,100189.22
2023-04-25T06:25:55.207Z,100202.47
2023-04-25T06:28:25.314Z,100189.13
2023-04-25T06:30:52.846Z,100185.59
2023-04-25T06:33:21.149Z,100187.50
2023-04-25T06:35:48.793Z,100186.47
2023-04-25T06:38:17.198Z,100189.38
2023-04-25T06:40:44.751Z,100190.22
2023-04-25T06:43:12.194Z,100186.00
2023-04-25T06:45:41.198Z,100189.84
2023-04-25T06:48:08.706Z,100197.75
2023-04-25T06:50:36.329Z,100194.38
2023-04-25T06:53:04.058Z,100195.19
2023-04-25T06:55:31.551Z,100205.09
2023-04-25T06:57:58.987Z,100210.41
2023-04-25T07:00:33.308Z,100208.66
2023-04-25T07:03:02.441Z,100214.59
2023-04-25T07:05:30.010Z,100218.06
2023-04-25T07:07:58.427Z,100225.75
2023-04-25T07:10:26.195Z,100230.00
2023-04-25T07:12:53.753Z,100218.97
2023-04-25T07:15:21.308Z,100212.97
2023-04-25T07:17:48.982Z,100224.13
2023-04-25T07:20:17.770Z,100231.00
2023-04-25T07:22:45.374Z,100234.44
2023-04-25T07:25:12.982Z,100237.03
2023-04-25T07:27:40.792Z,100231.00
2023-04-25T07:30:10.191Z,100246.44
2023-04-25T07:32:37.693Z,100240.47
2023-04-25T07:35:05.870Z,100250.72
2023-04-25T07:37:34.622Z,100248.13
2023-04-25T07:40:02.012Z,100255.06
2023-04-25T07:42:29.452Z,100256.75
2023-04-25T07:44:56.977Z,100265.25
2023-04-25T07:47:24.479Z,100257.66
2023-04-25T07:49:51.962Z,100269.50
2023-04-25T07:52:19.385Z,100272.94
2023-04-25T07:54:48.578Z,100271.97
2023-04-25T07:57:16.052Z,100277.94
2023-04-25T07:59:43.499Z,100281.59
2023-04-25T08:02:11.029Z,100273.97
2023-04-25T08:04:38.652Z,100274.00
2023-04-25T08:07:06.696Z,100291.06
2023-04-25T08:09:36.261Z,100291.00
2023-04-25T08:12:05.602Z,100297.97
2023-04-25T08:14:38.099Z,100285.16
2023-04-25T08:17:06.188Z,100295.50
2023-04-25T08:19:33.724Z,100289.47
2023-04-25T08:22:01.179Z,100289.25
2023-04-25T08:24:28.661Z,100300.63
2023-04-25T08:26:56.795Z,100300.66
2023-04-25T08:29:26.801Z,100304.06
2023-04-25T08:31:54.643Z,100307.50
2023-04-25T08:34:22.214Z,100321.28
2023-04-25T08:36:49.679Z,100319.56
2023-04-25T08:39:17.141Z,100320.38
2023-04-25T08:41:45.219Z,100334.19
2023-04-25T08:44:13.510Z,100327.16
2023-04-25T08:46:42.915Z,100330.66
2023-04-25T08:49:10.955Z,100331.56
2023-04-25T08:51:47.540Z,100341.00
2023-04-25T08:54:33.887Z,100335.91
2023-04-25T08:57:04.824Z,100343.59
2023-04-25T08:59:32.411Z,100342.75
2023-04-25T09:02:02.524Z,100332.44
2023-04-25T09:04:32.344Z,100333.06
2023-04-25T09:06:59.826Z,100333.19
2023-04-25T09:09:27.341Z,100339.25
2023-04-25T09:11:56.524Z,100344.53
2023-04-25T09:14:26.664Z,100343.59
2023-04-25T09:17:03.668Z,100350.56
2023-04-25T09:22:05.387Z,100351.25
2023-04-25T09:24:36.949Z,100361.69
2023-04-25T09:27:05.751Z,100363.38
2023-04-25T09:29:34.770Z,100361.72
2023-04-25T09:32:18.801Z,100354.75
2023-04-25T09:34:50.477Z,100354.81
2023-04-25T09:37:22.379Z,100354.81
2023-04-25T09:39:51.501Z,100363.34
2023-04-25T09:42:19.664Z,100385.81
2023-04-25T09:44:48.763Z,100371.94
2023-04-25T09:47:18.716Z,100367.47
2023-04-25T09:49:46.430Z,100368.44
2023-04-25T09:52:16.608Z,100369.19
2023-04-25T09:54:44.129Z,100366.59
2023-04-25T09:57:13.994Z,100385.78
2023-04-25T09:59:45.762Z,100375.47
2023-04-25T10:02:14.523Z,100387.53
2023-04-25T10:04:46.704Z,100382.38
2023-04-25T10:07:15.038Z,100384.00
2023-04-25T10:09:42.964Z,100377.19
2023-04-25T10:12:10.540Z,100373.75
2023-04-25T10:14:38.100Z,100374.22
2023-04-25T10:17:05.630Z,100377.75
2023-04-25T10:19:33.899Z,100376.25
2023-04-25T10:22:09.784Z,100386.63
2023-04-25T10:24:38.254Z,100385.72
2023-04-25T10:27:07.575Z,100397.84
2023-04-25T10:29:34.993Z,100394.44
2023-04-25T10:32:02.846Z,100389.19
2023-04-25T10:34:41.857Z,100398.66
2023-04-25T10:37:12.728Z,100398.72
2023-04-25T10:39:42.265Z,100398.66
2023-04-25T10:42:10.025Z,100400.41
2023-04-25T10:44:39.990Z,100402.13
2023-04-25T10:47:09.470Z,100407.31
2023-04-25T10:49:38.648Z,100394.94
2023-04-25T10:52:26.323Z,100399.41
2023-04-25T10:54:57.453Z,100416.69
2023-04-25T10:57:32.926Z,100410.72
2023-04-25T11:00:01.957Z,100413.31
2023-04-25T11:02:30.521Z,100413.13
2023-04-25T11:04:58.156Z,100410.72
2023-04-25T11:07:35.566Z,100423.66
2023-04-25T11:10:05.707Z,100432.13
2023-04-25T11:12:33.826Z,100452.03
2023-04-25T11:15:03.079Z,100450.75
2023-04-25T11:17:31.612Z,100461.19
2023-04-25T11:19:59.248Z,100468.91
2023-04-25T11:22:28.802Z,100462.00
2023-04-25T11:24:56.319Z,100460.47
2023-04-25T11:27:25.690Z,100460.66
2023-04-25T11:29:53.101Z,100456.38
2023-04-25T11:32:23.235Z,100463.94
2023-04-25T11:34:51.348Z,100466.44
2023-04-25T11:37:18.941Z,100460.59
2023-04-25T11:39:48.193Z,100464.88
2023-04-25T11:42:15.675Z,100468.41
2023-04-25T11:44:43.254Z,100474.34
2023-04-25T11:47:10.708Z,100481.31
2023-04-25T11:49:38.195Z,100469.22
2023-04-25T11:52:08.514Z,100459.72
2023-04-25T11:54:37.787Z,100469.19
2023-04-25T11:57:06.585Z,100469.91
2023-04-25T11:59:34.066Z,100463.22
2023-04-25T12:02:02.780Z,100475.19
2023-04-25T12:04:33.236Z,100475.09
2023-04-25T12:07:01.764Z,100476.91
2023-04-25T12:09:33.702Z,100482.06
2023-04-25T12:12:03.864Z,100485.66
2023-04-25T12:14:35.136Z,100490.50
2023-04-25T12:17:04.863Z,100495.72
2023-04-25T12:19:34.907Z,100495.69
2023-04-25T12:22:04.021Z,100483.06
2023-04-25T12:24:31.940Z,100489.94
2023-04-25T12:27:02.722Z,100490.75
2023-04-25T12:29:41.852Z,100490.78
2023-04-25T12:32:17.078Z,100481.25
2023-04-25T12:34:44.635Z,100485.63
2023-04-25T12:37:12.438Z,100500.22
2023-04-25T12:39:40.083Z,100504.50
2023-04-25T12:42:09.634Z,100497.59
2023-04-25T12:44:37.576Z,100502.81
2023-04-25T12:47:06.417Z,100491.59
2023-04-25T12:49:35.295Z,100497.69
2023-04-25T12:52:02.765Z,100500.19
2023-04-25T12:54:30.645Z,100505.44
2023-04-25T12:56:58.496Z,100495.81
2023-04-25T12:59:25.931Z,100495.09
2023-04-25T13:01:53.378Z,100497.63
2023-04-25T13:04:22.135Z,100507.91
2023-04-25T13:06:51.264Z,100507.09
2023-04-25T13:09:18.645Z,100500.25
2023-04-25T13:11:46.942Z,100501.09
2023-04-25T13:14:14.574Z,100499.41
2023-04-25T13:16:42.259Z,100497.66
2023-04-25T13:19:12.393Z,100498.56
2023-04-25T13:21:40.212Z,100506.16
2023-04-25T13:24:09.155Z,100498.75
2023-04-25T13:26:36.643Z,100501.03
2023-04-25T13:29:04.935Z,100506.22
2023-04-25T13:31:32.889Z,100518.34
2023-04-25T13:34:00.484Z,100512.19
2023-04-25T13:36:28.800Z,100512.94
2023-04-25T13:38:56.238Z,100526.78
2023-04-25T13:41:25.432Z,100526.72
2023-04-25T13:43:53.181Z,100531.03
2023-04-25T13:46:40.986Z,100528.56
2023-04-25T13:49:12.893Z,100508.88
2023-04-25T13:51:41.221Z,100515.63
2023-04-25T13:54:08.769Z,100525.13
2023-04-25T13:56:37.935Z,100526.91
2023-04-25T13:59:05.449Z,100536.34
2023-04-25T14:01:35.315Z,100533.84
2023-04-25T14:04:04.730Z,100530.34
2023-04-25T14:06:33.284Z,100532.09
2023-04-25T14:09:01.550Z,100538.84
2023-04-25T14:11:28.942Z,100540.72
2023-04-25T14:13:57.640Z,100546.75
2023-04-25T14:16:25.470Z,100543.31
2023-04-25T14:18:53.413Z,100545.72
2023-04-25T14:21:21.844Z,100549.81
2023-04-25T14:23:49.600Z,100552.34
2023-04-25T14:26:17.303Z,100549.28
2023-04-25T14:28:44.935Z,100559.50
2023-04-25T14:31:13.834Z,100555.38
2023-04-25T14:33:43.644Z,100550.16
2023-04-25T14:36:11.289Z,100557.94
2023-04-25T14:38:38.661Z,100565.66
2023-04-25T14:41:06.734Z,100558.81
2023-04-25T14:43:34.150Z,100551.72
2023-04-25T14:46:02.604Z,100552.50
2023-04-25T14:48:32.354Z,100544.88
2023-04-25T14:51:00.687Z,100561.41
2023-04-25T14:53:28.827Z,100568.13
2023-04-25T14:55:56.444Z,100568.94
2023-04-25T14:58:23.849Z,100571.41
2023-04-25T15:00:51.571Z,100587.22
2023-04-25T15:03:19.695Z,100594.69
2023-04-25T15:05:48.638Z,100588.81
2023-04-25T15:08:16.161Z,100579.22
2023-04-25T15:10:43.709Z,100578.06
2023-04-25T15:13:11.498Z,100585.94
2023-04-25T15:15:38.909Z,100579.13
2023-04-25T15:18:06.726Z,100581.09
2023-04-25T15:20:34.234Z,100573.47
2023-04-25T15:23:04.473Z,100571.66
2023-04-25T15:25:31.997Z,100581.84
2023-04-25T15:28:00.902Z,100578.47
2023-04-25T15:30:28.390Z,100575.16
2023-04-25T15:32:56.309Z,100569.91
2023-04-25T15:35:23.869Z,100587.00
2023-04-25T15:37:51.510Z,100578.59
2023-04-25T15:40:20.380Z,100582.91
2023-04-25T15:42:51.490Z,100598.00
2023-04-25T15:45:20.460Z,100599.41
2023-04-25T15:47:48.456Z,100590.88
2023-04-25T15:50:16.422Z,100589.34
2023-04-25T15:52:44.646Z,100589.66
2023-04-25T15:55:14.136Z,100589.75
2023-04-25T15:57:42.966Z,100593.72
2023-04-25T16:00:13.077Z,100587.13
2023-04-25T16:02:41.738Z,100587.06
2023-04-25T16:05:11.277Z,100581.84
2023-04-25T16:07:39.197Z,100587.91
2023-04-25T16:10:07.497Z,100591.34
2023-04-25T16:12:35.036Z,100598.25
2023-04-25T16:15:04.139Z,100584.38
2023-04-25T16:17:33.249Z,100597.25
2023-04-25T16:20:01.842Z,100606.47
2023-04-25T16:22:29.501Z,100598.94
2023-04-25T16:24:56.911Z,100597.06
2023-04-25T16:27:24.311Z,100590.44
2023-04-25T16:29:51.710Z,100597.44
2023-04-25T16:32:20.670Z,100597.47
2023-04-25T16:34:48.156Z,100601.91
2023-04-25T16:37:15.644Z,100598.34
2023-04-25T16:39:43.054Z,100613.00
2023-04-25T16:42:10.625Z,100612.03
2023-04-25T16:44:38.028Z,100613.44
2023-04-25T16:47:06.054Z,100615.38
2023-04-25T16:49:34.985Z,100609.19
2023-04-25T16:52:02.423Z,100606.19
2023-04-25T16:54:29.895Z,100607.91
2023-04-25T16:56:58.158Z,100615.66
2023-04-25T16:59:25.573Z,100607.88
2023-04-25T17:01:53.082Z,100607.91
2023-04-25T17:04:20.653Z,100619.94
2023-04-25T17:06:49.418Z,100623.28
2023-04-25T17:09:16.799Z,100620.69
2023-04-25T17:11:44.242Z,100621.44
2023-04-25T17:14:11.648Z,100628.03
2023-04-25T17:16:40.003Z,100619.81
2023-04-25T17:19:08.449Z,100628.41
2023-04-25T17:21:35.907Z,100632.81
2023-04-25T17:24:09.550Z,100623.16
2023-04-25T17:26:37.413Z,100626.31
2023-04-25T17:29:05.190Z,100635.91
2023-04-25T17:31:32.666Z,100639.47
2023-04-25T17:34:00.196Z,100643.16
2023-04-25T17:36:27.789Z,100644.91
2023-04-25T17:38:55.186Z,100647.47
2023-04-25T17:41:23.925Z,100645.28
2023-04-25T17:43:51.337Z,100646.16
2023-04-25T17:46:18.778Z,100642.94
2023-04-25T17:48:46.292Z,100645.34
2023-04-25T17:51:13.686Z,100652.19
2023-04-25T17:53:41.382Z,100646.34
2023-04-25T17:56:19.792Z,100651.44
2023-04-25T17:58:55.759Z,100649.66
2023-04-25T18:01:23.526Z,100656.72
2023-04-25T18:03:52.926Z,100647.38
2023-04-25T18:06:20.657Z,100646.59
2023-04-25T18:08:49.172Z,100658.69
2023-04-25T18:11:16.950Z,100658.66
2023-04-25T18:13:44.380Z,100664.38
2023-04-25T18:16:13.106Z,100664.56
2023-04-25T18:18:44.097Z,100667.19
2023-04-25T18:21:11.733Z,100669.72
2023-04-25T18:23:39.191Z,100667.13
2023-04-25T18:26:06.641Z,100676.56
2023-04-25T18:28:34.724Z,100678.28
2023-04-25T18:31:02.378Z,100693.09
2023-04-25T18:33:31.874Z,100695.16
2023-04-25T18:36:00.014Z,100692.06
2023-04-25T18:41:12.926Z,100704.91
2023-04-25T18:43:45.580Z,100710.56
2023-04-25T18:46:13.608Z,100713.84
2023-04-25T18:48:42.923Z,100724.34
2023-04-25T18:51:10.545Z,100724.88
2023-04-25T18:53:38.289Z,100733.31
2023-04-25T18:56:05.869Z,100741.81
2023-04-25T18:58:33.665Z,100739.25
2023-04-25T19:01:01.301Z,100738.94
2023-04-25T19:03:29.432Z,100747.22
2023-04-25T19:05:58.356Z,100741.88
2023-04-25T19:08:26.894Z,100748.84
2023-04-25T19:10:55.070Z,100744.31
2023-04-25T19:13:22.478Z,100742.66
2023-04-25T19:15:50.250Z,100743.50
2023-04-25T19:18:17.961Z,100752.50
2023-04-25T19:20:46.408Z,100757.66
2023-04-25T19:23:15.118Z,100752.22
2023-04-25T19:25:42.636Z,100761.53
2023-04-25T19:28:12.813Z,100769.63
2023-04-25T19:30:41.246Z,100769.03
2023-04-25T19:33:08.773Z,100771.38
2023-04-25T19:35:36.205Z,100765.44
2023-04-25T19:38:03.644Z,100768.25
2023-04-25T19:40:32.388Z,100752.97
2023-04-25T19:42:59.770Z,100776.34
2023-04-25T19:45:27.158Z,100777.19
2023-04-25T19:47:55.189Z,100777.25
2023-04-25T19:50:22.628Z,100774.44
2023-04-25T19:52:50.025Z,100772.59
2023-04-25T19:55:18.072Z,100783.53
2023-04-25T19:57:47.317Z,100773.66
2023-04-25T20:00:19.259Z,100768.25
2023-04-25T20:02:47.759Z,100774.91
2023-04-25T20:05:17.106Z,100778.25
2023-04-25T20:07:44.576Z,100772.81
2023-04-25T20:10:14.036Z,100769.03
2023-04-25T20:12:41.466Z,100773.63
2023-04-25T20:15:11.671Z,100773.63
2023-04-25T20:17:39.404Z,100781.38
2023-04-25T20:20:08.091Z,100782.09
2023-04-25T20:22:38.599Z,100772.66
2023-04-25T20:25:08.118Z,100785.94
2023-04-25T20:27:37.757Z,100792.69
2023-04-25T20:30:08.069Z,100788.97
2023-04-25T20:32:38.864Z,100784.81
2023-04-25T20:35:11.247Z,100793.81
2023-04-25T20:37:38.654Z,100788.25
2023-04-25T20:40:08.574Z,100795.88
2023-04-25T20:42:36.490Z,100793.84
2023-04-25T20:45:07.466Z,100792.59
2023-04-25T20:47:35.095Z,100801.47
2023-04-25T20:50:06.009Z,100795.41
2023-04-25T20:52:36.575Z,100803.25
2023-04-25T20:55:05.381Z,100807.56
2023-04-25T20:57:33.189Z,100803.69
2023-04-25T21:00:00.743Z,100808.75
2023-04-25T21:02:29.382Z,100810.13
2023-04-25T21:04:56.919Z,100812.00
2023-04-25T21:07:26.876Z,100810.47
2023-04-25T21:09:54.273Z,100822.34
2023-04-25T21:12:21.663Z,100809.97
2023-04-25T21:14:49.080Z,100813.84
2023-04-25T21:17:16.601Z,100818.75
2023-04-25T21:19:44.039Z,100816.16
2023-04-25T21:22:11.574Z,100815.56
2023-04-25T21:24:40.359Z,100808.28
2023-04-25T21:27:07.772Z,100815.63
2023-04-25T21:29:35.677Z,100815.56
2023-04-25T21:32:03.495Z,100812.81
2023-04-25T21:34:30.950Z,100821.22
2023-04-25T21:36:58.386Z,100823.84
2023-04-25T21:39:26.300Z,100823.00
2023-04-25T21:41:58.204Z,100831.22
2023-04-25T21:44:28.560Z,100828.06
2023-04-25T21:46:55.980Z,100833.41
2023-04-25T21:49:29.193Z,100832.31
2023-04-25T21:51:56.775Z,100845.72
2023-04-25T21:54:24.216Z,100848.59
2023-04-25T21:56:51.702Z,100844.28
2023-04-25T21:59:20.542Z,100848.59
2023-04-25T22:01:48.483Z,100844.06
2023-04-25T22:04:16.104Z,100848.47
2023-04-25T22:06:43.747Z,100848.03
2023-04-25T22:09:11.168Z,100844.63
2023-04-25T22:11:38.567Z,100829.16
2023-04-25T22:14:05.962Z,100832.00
2023-04-25T22:16:34.765Z,100831.22
2023-04-25T22:19:02.173Z,100835.53
2023-04-25T22:21:29.570Z,100834.63
2023-04-25T22:23:57.596Z,100841.50
2023-04-25T22:26:25.371Z,100842.44
2023-04-25T22:28:53.145Z,100845.84
2023-04-25T22:31:23.348Z,100847.59
2023-04-25T22:33:52.222Z,100857.91
2023-04-25T22:36:19.631Z,100865.09
2023-04-25T22:38:47.503Z,100874.28
2023-04-25T22:41:14.909Z,100879.28
2023-04-25T22:43:42.336Z,100882.78
2023-04-25T22:46:16.773Z,100884.53
2023-04-25T22:48:44.676Z,100891.63
2023-04-25T22:51:13.973Z,100893.69
2023-04-25T22:53:42.720Z,100892.41
2023-04-25T22:56:11.272Z,100884.53
2023-04-25T22:58:39.610Z,100892.06
2023-04-25T23:01:07.279Z,100897.47
2023-04-25T23:03:34.978Z,100890.53
2023-04-25T23:06:02.742Z,100896.41
2023-04-25T23:08:31.484Z,100891.81
2023-04-25T23:10:59.155Z,100902.03
2023-04-25T23:13:26.701Z,100895.03
2023-04-25T23:15:54.100Z,100906.47
2023-04-25T23:18:21.553Z,100905.59
2023-04-25T23:20:48.920Z,100904.63
2023-04-25T23:23:16.997Z,100904.16
2023-04-25T23:25:46.165Z,100908.44
2023-04-25T23:28:13.537Z,100902.88
2023-04-25T23:30:41.022Z,100907.19
2023-04-25T23:33:08.586Z,100912.03
2023-04-25T23:35:36.915Z,100907.66
2023-04-25T23:38:04.323Z,100912.97
2023-04-25T23:40:31.913Z,100909.09
2023-04-25T23:43:02.194Z,100919.28
2023-04-25T23:45:30.189Z,100921.31
2023-04-25T23:47:57.626Z,100923.88
2023-04-25T23:50:25.078Z,100922.25
2023-04-25T23:52:52.455Z,100921.16
2023-04-25T23:55:20.173Z,100932.84
2023-04-25T23:57:48.478Z,100928.00
